Time;durP1;ratioP1;P1;durP2;ratioP2;P2;SDS_P1;SDS_P2;PMS_P1;PMS_P2;Temp;Humidity;BMP_temperature;BMP_pressure;BME280_temperature;BME280_humidity;BME280_pressure;Samples;Min_cycle;Max_cycle;Signal;HPM_P1;HPM_P2
2022/12/18 00:01:24;;;;;;;12.25;7.28;;;;;;;-5.82;59.73;101518.69;5071837;28;20068;-75
2022/12/18 00:03:52;;;;;;;11.27;6.32;;;;;;;-5.80;59.50;101522.06;5056052;28;20481;-75
2022/12/18 00:06:20;;;;;;;13.82;7.60;;;;;;;-5.82;59.48;101519.53;5072312;28;20052;-75
2022/12/18 00:08:47;;;;;;;10.00;6.00;;;;;;;-5.77;59.57;101530.69;5070544;28;20500;-75
2022/12/18 00:11:16;;;;;;;18.15;11.00;;;;;;;-5.81;59.42;101533.94;5072995;28;20127;-75
2022/12/18 00:13:44;;;;;;;25.60;15.77;;;;;;;-5.84;59.01;101532.41;5071904;28;20045;-75
2022/12/18 00:16:13;;;;;;;22.17;13.48;;;;;;;-5.87;59.16;101529.25;5071289;28;20053;-75
2022/12/18 00:18:43;;;;;;;21.95;12.15;;;;;;;-5.88;59.90;101522.94;5071967;28;20503;-76
2022/12/18 00:21:12;;;;;;;14.80;9.10;;;;;;;-5.87;59.79;101524.66;5071438;28;20051;-75
2022/12/18 00:23:41;;;;;;;12.48;7.65;;;;;;;-5.89;59.07;101529.41;5072097;28;20057;-75
2022/12/18 00:26:12;;;;;;;14.57;7.47;;;;;;;-5.82;59.19;101541.22;5072427;28;20059;-75
2022/12/18 00:28:47;;;;;;;13.52;8.52;;;;;;;-5.95;59.26;101533.72;5071685;28;20048;-76
2022/12/18 00:31:18;;;;;;;11.73;8.05;;;;;;;-5.97;58.89;101541.19;5072142;28;20416;-75
2022/12/18 00:33:47;;;;;;;13.23;8.27;;;;;;;-5.98;59.51;101535.97;5059700;28;20383;-76
2022/12/18 00:36:17;;;;;;;13.88;8.13;;;;;;;-5.91;58.90;101531.47;5067757;28;20056;-75
2022/12/18 00:38:44;;;;;;;11.13;7.60;;;;;;;-5.87;59.33;101535.50;5071980;28;20411;-75
2022/12/18 00:42:55;;;;;;;13.18;6.35;;;;;;;-5.90;59.27;101535.84;5072052;28;20048;-75
2022/12/18 00:44:01;;;;;;;12.45;6.95;;;;;;;-5.98;59.05;101534.09;5055630;28;20049;-75
2022/12/18 00:46:28;;;;;;;12.07;6.90;;;;;;;-5.98;58.92;101536.78;5072435;28;20059;-75
2022/12/18 00:48:57;;;;;;;14.77;7.60;;;;;;;-5.98;59.42;101535.97;5072048;28;20056;-74
2022/12/18 00:51:25;;;;;;;12.18;7.72;;;;;;;-5.99;59.96;101540.53;5069602;28;20048;-76
2022/12/18 00:53:52;;;;;;;12.95;7.28;;;;;;;-5.95;59.62;101533.72;5062660;28;20412;-75
2022/12/18 00:56:23;;;;;;;10.77;6.97;;;;;;;-6.02;59.14;101540.06;5072033;28;20056;-75
2022/12/18 00:58:50;;;;;;;12.10;7.47;;;;;;;-5.94;58.86;101548.94;5070599;28;20472;-75
2022/12/18 01:01:17;;;;;;;14.68;8.63;;;;;;;-5.95;59.59;101547.28;5072489;28;20158;-75
2022/12/18 01:03:46;;;;;;;12.75;7.63;;;;;;;-5.91;58.94;101539.59;5072627;28;20048;-76
2022/12/18 01:06:16;;;;;;;10.55;6.47;;;;;;;-5.92;59.13;101536.06;5072257;28;20060;-75
2022/12/18 01:08:44;;;;;;;11.27;7.72;;;;;;;-5.96;58.96;101539.34;5071328;28;20389;-75
2022/12/18 01:11:12;;;;;;;10.45;6.95;;;;;;;-6.01;59.35;101536.31;5070812;28;20063;-75
2022/12/18 01:13:40;;;;;;;9.25;5.97;;;;;;;-6.07;59.40;101537.00;5071950;28;20511;-75
2022/12/18 01:16:08;;;;;;;11.65;6.00;;;;;;;-5.98;58.78;101533.25;5067476;28;20527;-76
2022/12/18 01:18:36;;;;;;;11.23;6.20;;;;;;;-6.01;59.50;101525.44;5052398;28;20489;-76
2022/12/18 01:21:07;;;;;;;10.98;6.35;;;;;;;-6.08;59.87;101529.91;5070136;28;20057;-75
2022/12/18 01:23:35;;;;;;;11.60;6.30;;;;;;;-5.98;58.76;101525.09;5069683;28;20045;-76
2022/12/18 01:26:08;;;;;;;11.40;6.15;;;;;;;-6.00;59.22;101532.59;5072543;28;20481;-75
2022/12/18 01:28:35;;;;;;;9.80;5.43;;;;;;;-6.03;59.26;101532.91;5075917;28;20064;-75
2022/12/18 01:31:18;;;;;;;11.57;6.13;;;;;;;-5.97;58.99;101532.22;5070349;28;20397;-75
2022/12/18 01:33:47;;;;;;;12.13;6.18;;;;;;;-5.99;59.34;101532.38;5062787;28;20060;-75
2022/12/18 01:36:20;;;;;;;9.95;6.05;;;;;;;-5.96;59.04;101536.63;5073462;28;20424;-75
2022/12/18 01:38:49;;;;;;;11.70;6.40;;;;;;;-5.96;59.11;101542.06;5074618;28;20067;-75
2022/12/18 01:41:20;;;;;;;12.70;7.10;;;;;;;-5.99;59.00;101550.53;5075142;28;20049;-75
2022/12/18 01:43:50;;;;;;;19.60;10.13;;;;;;;-6.07;58.95;101546.00;5074818;28;20048;-75
2022/12/18 01:46:20;;;;;;;24.73;14.48;;;;;;;-6.01;59.22;101556.13;5075548;28;20392;-75
2022/12/18 01:48:50;;;;;;;21.07;11.37;;;;;;;-6.06;58.72;101547.69;5073766;28;20053;-75
2022/12/18 01:51:17;;;;;;;14.50;8.75;;;;;;;-5.98;58.16;101541.38;5075134;28;20471;-75
2022/12/18 01:53:49;;;;;;;11.73;6.47;;;;;;;-5.99;58.13;101535.09;5072482;28;20412;-77
2022/12/18 01:56:19;;;;;;;11.75;6.85;;;;;;;-5.98;57.81;101519.69;5073814;28;20041;-75
2022/12/18 01:58:49;;;;;;;;;;;;;;;-6.13;59.08;101522.31;5064313;28;20064;-75
2022/12/18 02:01:16;;;;;;;;;;;;;;;-6.13;59.33;101522.31;5074929;28;19928;-75
2022/12/18 02:03:45;;;;;;;10.10;6.35;;;;;;;-6.18;59.23;101520.13;5073540;28;19943;-75
2022/12/18 02:06:17;;;;;;;11.35;7.18;;;;;;;-6.14;59.62;101518.75;5057251;28;20501;-75
2022/12/18 02:08:57;;;;;;;13.40;7.57;;;;;;;-6.13;58.80;101522.31;5075240;28;20417;-76
2022/12/18 02:11:33;;;;;;;16.83;8.68;;;;;;;-6.10;58.90;101527.38;5076084;28;20067;-75
2022/12/18 02:14:09;;;;;;;18.90;10.85;;;;;;;-6.09;59.29;101530.94;5069206;28;20048;-75
2022/12/18 02:16:46;;;;;;;26.23;13.07;;;;;;;-6.12;59.55;101538.41;5069003;28;20055;-74
2022/12/18 02:19:29;;;;;;;35.72;16.25;;;;;;;-6.09;58.93;101533.63;5074383;28;20523;-74
2022/12/18 02:22:04;;;;;;;26.65;15.27;;;;;;;-6.05;59.13;101527.66;5074953;28;20060;-74
2022/12/18 02:24:42;;;;;;;31.48;15.77;;;;;;;-6.08;58.84;101525.34;5055615;28;20049;-75
2022/12/18 02:27:12;;;;;;;26.48;12.07;;;;;;;-6.00;57.89;101528.00;5069418;28;20485;-75
2022/12/18 02:29:47;;;;;;;22.63;10.85;;;;;;;-6.11;58.21;101528.38;5073944;28;20053;-75
2022/12/18 02:32:18;;;;;;;19.95;10.63;;;;;;;-6.20;58.61;101521.31;5073420;28;20053;-75
2022/12/18 02:34:48;;;;;;;19.25;10.57;;;;;;;-6.23;59.40;101525.25;5075147;28;20469;-75
2022/12/18 02:37:20;;;;;;;19.48;10.20;;;;;;;-6.26;59.24;101517.44;5072858;28;20057;-75
2022/12/18 02:39:49;;;;;;;18.00;10.27;;;;;;;-6.22;59.17;101510.66;5076939;28;20416;-74
2022/12/18 02:42:19;;;;;;;16.63;9.45;;;;;;;-6.21;58.57;101503.38;5074387;28;20381;-76
2022/12/18 02:44:49;;;;;;;17.05;10.70;;;;;;;-6.16;58.88;101503.69;5073521;28;20527;-75
2022/12/18 02:47:20;;;;;;;13.60;7.32;;;;;;;-6.28;59.25;101508.66;5068867;28;20048;-75
2022/12/18 02:49:58;;;;;;;18.13;9.38;;;;;;;-6.19;59.55;101507.59;5075036;28;20048;-74
2022/12/18 02:52:36;;;;;;;11.93;8.00;;;;;;;-6.20;59.42;101508.59;5073301;28;20064;-75
2022/12/18 02:55:24;;;;;;;12.43;7.72;;;;;;;-6.25;59.36;101515.63;5073671;28;20055;-75
2022/12/18 02:58:04;;;;;;;14.82;8.40;;;;;;;-6.22;59.40;101520.66;5073747;28;20049;-75
2022/12/18 03:00:35;;;;;;;;;;;;;;;-6.22;58.97;101526.91;5072807;28;20068;-75
2022/12/18 03:03:08;;;;;;;15.57;9.15;;;;;;;-6.20;59.28;101526.75;5073302;28;19927;-75
2022/12/18 03:05:42;;;;;;;20.85;11.10;;;;;;;-6.15;58.46;101525.22;5053905;28;20072;-75
2022/12/18 03:08:14;;;;;;;18.42;9.75;;;;;;;-6.14;58.28;101521.44;5070959;28;20060;-74
2022/12/18 03:10:46;;;;;;;18.00;9.30;;;;;;;-6.12;58.85;101514.00;5073245;28;20056;-75
2022/12/18 03:13:21;;;;;;;15.00;8.45;;;;;;;-6.21;58.35;101515.06;5073895;28;20060;-76
2022/12/18 03:15:52;;;;;;;11.95;7.45;;;;;;;-6.14;58.49;101520.63;5073076;28;20052;-76
2022/12/18 03:18:24;;;;;;;12.70;7.43;;;;;;;-6.21;58.25;101519.66;5073031;28;20049;-76
2022/12/18 03:20:56;;;;;;;15.07;8.35;;;;;;;-6.16;58.83;101520.78;5073070;28;20053;-76
2022/12/18 03:23:28;;;;;;;11.43;7.10;;;;;;;-6.13;58.18;101519.63;5072770;28;20048;-76
2022/12/18 03:26:00;;;;;;;10.82;6.22;;;;;;;-6.10;57.63;101507.56;5073360;28;20060;-75
2022/12/18 03:28:32;;;;;;;8.27;5.50;;;;;;;-6.08;57.68;101509.06;5065776;28;20063;-75
2022/12/18 03:31:02;;;;;;;10.38;5.82;;;;;;;-6.16;58.40;101518.06;5072208;28;20051;-75
2022/12/18 03:33:35;;;;;;;9.52;6.28;;;;;;;-6.36;58.75;101522.28;5073284;28;20059;-76
2022/12/18 03:36:03;;;;;;;8.60;5.85;;;;;;;-6.29;58.89;101512.41;5072339;28;20059;-76
2022/12/18 03:38:30;;;;;;;7.60;4.97;;;;;;;-6.30;58.76;101510.69;5072643;28;20500;-75
2022/12/18 03:41:04;;;;;;;10.38;6.00;;;;;;;-6.28;58.82;101503.22;5073053;28;20052;-76
2022/12/18 03:43:43;;;;;;;8.52;5.57;;;;;;;-6.23;59.41;101491.88;5073015;28;20667;-85
2022/12/18 03:46:18;;;;;;;8.27;5.45;;;;;;;-6.34;58.47;101499.38;5057617;28;20045;-85
2022/12/18 03:48:50;;;;;;;8.55;5.13;;;;;;;-6.27;58.84;101495.97;5072822;28;20048;-85
2022/12/18 03:51:25;;;;;;;9.10;5.70;;;;;;;-6.34;58.88;101482.25;5073871;28;20056;-86
2022/12/18 03:53:57;;;;;;;11.00;6.78;;;;;;;-6.30;58.51;101478.16;5070141;28;20053;-85
2022/12/18 03:56:29;;;;;;;17.77;9.63;;;;;;;-6.30;58.76;101489.00;5061384;28;20052;-85
2022/12/18 03:59:01;;;;;;;19.02;9.02;;;;;;;-6.29;58.44;101496.13;5073823;28;20059;-85
2022/12/18 04:01:33;;;;;;;21.17;11.95;;;;;;;-6.26;58.27;101506.59;5072139;28;20478;-85
2022/12/18 04:04:02;;;;;;;19.92;11.00;;;;;;;-6.27;58.11;101510.34;5072561;28;20045;-85
2022/12/18 04:06:31;;;;;;;22.67;12.75;;;;;;;-6.30;58.76;101507.97;5073115;28;20056;-85
2022/12/18 04:08:59;;;;;;;23.52;14.10;;;;;;;-6.35;58.35;101515.81;5070990;28;20440;-85
2022/12/18 04:11:30;;;;;;;22.45;12.73;;;;;;;-6.28;58.49;101510.53;5071585;28;20055;-85
2022/12/18 04:13:59;;;;;;;16.63;9.73;;;;;;;-6.24;58.27;101507.28;5072034;28;20057;-85
2022/12/18 04:16:30;;;;;;;15.18;9.73;;;;;;;-6.28;57.76;101499.69;5073075;28;20064;-85
2022/12/18 04:18:57;;;;;;;14.68;8.85;;;;;;;-6.25;57.72;101502.91;5072023;28;20056;-84
2022/12/18 04:21:24;;;;;;;17.83;8.88;;;;;;;-6.29;58.33;101506.13;5073226;28;20063;-85
2022/12/18 04:23:52;;;;;;;15.20;9.45;;;;;;;-6.31;58.64;101509.03;5072097;28;20510;-84
2022/12/18 04:26:22;;;;;;;14.48;8.15;;;;;;;-6.21;57.89;101506.09;5071656;28;20517;-84
2022/12/18 04:28:49;;;;;;;17.95;9.13;;;;;;;-6.27;57.86;101499.50;5072259;28;20048;-85
2022/12/18 04:31:18;;;;;;;15.45;8.77;;;;;;;-6.38;57.90;101498.06;5072892;28;20484;-85
2022/12/18 04:33:45;;;;;;;14.93;8.00;;;;;;;-6.34;58.18;101498.53;5072403;28;20060;-85
2022/12/18 04:36:12;;;;;;;16.02;8.30;;;;;;;-6.38;58.21;101505.34;5073457;28;20059;-85
2022/12/18 04:38:40;;;;;;;17.05;8.95;;;;;;;-6.31;58.42;101503.59;5070500;28;20408;-85
2022/12/18 04:41:07;;;;;;;12.32;6.78;;;;;;;-6.32;58.07;101501.91;5071823;28;20408;-85
2022/12/18 04:43:34;;;;;;;17.08;8.70;;;;;;;-6.32;58.14;101496.47;5072773;28;20052;-85
2022/12/18 04:46:05;;;;;;;14.32;8.30;;;;;;;-6.40;58.44;101496.53;5072165;28;20051;-85
2022/12/18 04:48:34;;;;;;;12.05;7.70;;;;;;;-6.36;58.53;101496.00;5072450;28;20060;-85
2022/12/18 04:51:01;;;;;;;14.88;9.88;;;;;;;-6.42;58.01;101495.88;5071833;28;20053;-85
2022/12/18 04:53:30;;;;;;;17.98;10.55;;;;;;;-6.43;58.61;101495.00;5070612;28;20496;-85
2022/12/18 04:56:06;;;;;;;20.35;11.85;;;;;;;-6.40;58.84;101491.13;5072843;28;20052;-85
2022/12/18 04:58:34;;;;;;;16.13;10.50;;;;;;;-6.44;58.12;101495.22;5071625;28;20055;-85
2022/12/18 05:01:01;;;;;;;16.50;10.00;;;;;;;-6.35;57.82;101494.13;5057994;28;20056;-85
2022/12/18 05:03:28;;;;;;;20.08;12.32;;;;;;;-6.44;58.29;101492.50;5059211;28;20048;-86
2022/12/18 05:05:57;;;;;;;23.15;12.95;;;;;;;-6.39;57.88;101490.94;5076150;28;20405;-85
2022/12/18 05:08:24;;;;;;;22.13;13.07;;;;;;;-6.44;58.56;101487.09;5074645;28;20381;-86
2022/12/18 05:10:59;;;;;;;20.17;11.68;;;;;;;-6.37;58.67;101483.47;5075050;28;20487;-85
2022/12/18 05:13:27;;;;;;;20.98;10.63;;;;;;;-6.31;58.58;101481.06;5067091;28;20056;-85
2022/12/18 05:15:55;;;;;;;15.50;9.82;;;;;;;-6.30;57.92;101478.16;5066604;28;20049;-84
2022/12/18 05:18:23;;;;;;;17.38;9.55;;;;;;;-6.34;58.22;101476.84;5075301;28;20048;-86
2022/12/18 05:20:50;;;;;;;15.95;8.80;;;;;;;-6.41;58.20;101465.03;5069624;28;20060;-85
2022/12/18 05:23:19;;;;;;;14.27;8.35;;;;;;;-6.40;57.79;101464.03;5060250;28;20075;-85
2022/12/18 05:25:51;;;;;;;16.00;8.90;;;;;;;-6.43;57.32;101464.34;5073484;28;20063;-84
2022/12/18 05:28:18;;;;;;;13.30;7.35;;;;;;;-6.42;58.63;101476.91;5075702;28;20057;-85
2022/12/18 05:30:49;;;;;;;13.35;7.80;;;;;;;-6.55;58.34;101462.06;5076125;28;20048;-84
2022/12/18 05:33:16;;;;;;;16.42;9.55;;;;;;;-6.51;58.24;101448.97;5075899;28;20079;-85
2022/12/18 05:35:43;;;;;;;17.63;10.57;;;;;;;-6.53;58.12;101460.03;5069732;28;20049;-84
2022/12/18 05:38:11;;;;;;;18.02;10.75;;;;;;;-6.47;57.89;101454.91;5056325;28;20064;-84
2022/12/18 05:40:42;;;;;;;21.98;12.77;;;;;;;-6.42;57.51;101447.94;5059571;28;20052;-84
2022/12/18 05:43:10;;;;;;;20.70;12.15;;;;;;;-6.45;58.23;101450.16;5075389;28;20057;-84
2022/12/18 05:45:38;;;;;;;19.17;10.95;;;;;;;-6.53;57.84;101449.19;5075079;28;20048;-84
2022/12/18 05:48:06;;;;;;;21.67;12.90;;;;;;;-6.46;57.49;101451.19;5071953;28;20059;-84
2022/12/18 05:50:35;;;;;;;19.08;11.48;;;;;;;-6.41;57.75;101446.06;5060998;28;20060;-84
2022/12/18 05:53:02;;;;;;;18.98;11.68;;;;;;;-6.47;57.36;101449.47;5072088;28;20052;-82
2022/12/18 05:55:30;;;;;;;19.08;11.65;;;;;;;-6.46;57.24;101456.59;5068656;28;20048;-85
2022/12/18 05:57:59;;;;;;;19.80;11.23;;;;;;;-6.55;56.97;101461.19;5066632;28;20056;-85
2022/12/18 06:00:26;;;;;;;20.77;11.45;;;;;;;-6.56;57.80;101465.78;5059060;28;20053;-85
2022/12/18 06:02:53;;;;;;;17.30;11.38;;;;;;;-6.59;57.66;101477.00;5055694;28;20493;-85
2022/12/18 06:05:20;;;;;;;20.08;11.50;;;;;;;-6.57;57.39;101474.94;5075227;28;20056;-83
2022/12/18 06:07:47;;;;;;;17.08;11.20;;;;;;;-6.56;57.13;101492.03;5073972;28;20052;-82
2022/12/18 06:10:15;;;;;;;18.98;11.27;;;;;;;-6.73;57.91;101491.25;5074002;28;20059;-84
2022/12/18 06:12:42;;;;;;;17.42;11.00;;;;;;;-6.59;57.73;101490.53;5073379;28;20056;-85
2022/12/18 06:15:11;;;;;;;21.38;11.05;;;;;;;-6.57;58.59;101496.63;5075419;28;20049;-83
2022/12/18 06:17:38;;;;;;;15.63;10.07;;;;;;;-6.60;57.91;101506.97;5074327;28;20064;-85
2022/12/18 06:20:07;;;;;;;18.10;10.88;;;;;;;-6.55;58.15;101494.59;5075306;28;20428;-84
2022/12/18 06:22:34;;;;;;;15.32;9.52;;;;;;;-6.49;57.43;101497.59;5068883;28;20052;-84
2022/12/18 06:25:02;;;;;;;18.42;10.35;;;;;;;-6.49;57.75;101506.56;5072037;28;20060;-85
2022/12/18 06:27:29;;;;;;;15.68;9.63;;;;;;;-6.57;57.89;101512.88;5075242;28;20495;-85
2022/12/18 06:29:56;;;;;;;17.95;9.90;;;;;;;-6.61;58.15;101511.53;5072629;28;20057;-80
2022/12/18 06:32:25;;;;;;;15.55;9.85;;;;;;;-6.48;58.13;101520.97;5061051;28;20067;-85
2022/12/18 06:34:53;;;;;;;15.82;9.10;;;;;;;-6.46;58.31;101517.06;5073781;28;20053;-85
2022/12/18 06:37:20;;;;;;;15.43;9.05;;;;;;;-6.51;57.86;101519.44;5075066;28;20365;-84
2022/12/18 06:39:47;;;;;;;14.13;8.70;;;;;;;-6.42;58.32;101518.41;5072264;28;20515;-84
2022/12/18 06:42:14;;;;;;;13.30;8.30;;;;;;;-6.37;58.95;101523.28;5071602;28;20048;-83
2022/12/18 06:44:42;;;;;;;13.77;8.07;;;;;;;-6.37;59.04;101517.88;5070194;28;20056;-85
2022/12/18 06:47:09;;;;;;;13.07;7.32;;;;;;;-6.30;59.59;101516.13;5074448;28;20049;-84
2022/12/18 06:49:38;;;;;;;9.38;6.57;;;;;;;-6.16;59.12;101506.41;5072974;28;20063;-84
2022/12/18 06:52:05;;;;;;;6.88;4.75;;;;;;;-6.00;61.21;101502.75;5063574;28;20409;-84
2022/12/18 06:54:32;;;;;;;8.63;4.20;;;;;;;-5.64;63.08;101502.09;5075027;28;20048;-84
2022/12/18 06:56:59;;;;;;;6.40;3.40;;;;;;;-5.20;64.40;101506.81;5074816;28;20049;-84
2022/12/18 06:59:26;;;;;;;7.43;3.38;;;;;;;-4.80;64.24;101502.78;5073310;28;20048;-85
2022/12/18 07:01:57;;;;;;;7.93;4.07;;;;;;;-4.41;64.49;101498.06;5071717;28;20075;-84
2022/12/18 07:04:29;;;;;;;6.88;3.72;;;;;;;-4.00;64.17;101492.06;5069900;28;20067;-85
2022/12/18 07:06:58;;;;;;;5.53;3.00;;;;;;;-3.58;63.57;101482.22;5074812;28;20086;-84
2022/12/18 07:09:25;;;;;;;8.37;4.70;;;;;;;-3.30;63.38;101480.38;5073527;28;20048;-84
2022/12/18 07:11:52;;;;;;;8.40;4.28;;;;;;;-3.11;62.33;101467.91;5074217;28;20495;-83
2022/12/18 07:14:20;;;;;;;6.38;3.63;;;;;;;-2.81;62.18;101459.50;5065452;28;20052;-84
2022/12/18 07:16:47;;;;;;;5.50;3.38;;;;;;;-2.56;61.35;101461.69;5073146;28;20055;-84
2022/12/18 07:19:14;;;;;;;5.85;3.38;;;;;;;-2.33;60.99;101466.81;5066392;28;20055;-85
2022/12/18 07:21:42;;;;;;;7.30;3.63;;;;;;;-2.13;59.09;101472.34;5065361;28;20350;-84
2022/12/18 07:24:10;;;;;;;7.43;3.83;;;;;;;-1.97;58.52;101468.41;5072297;28;20048;-85
2022/12/18 07:26:38;;;;;;;6.00;3.08;;;;;;;-1.83;58.16;101467.38;5073216;28;20049;-84
2022/12/18 07:29:05;;;;;;;6.80;3.42;;;;;;;-1.74;57.08;101463.41;5073398;28;20049;-84
2022/12/18 07:31:32;;;;;;;5.93;3.03;;;;;;;-1.67;57.46;101456.06;5072821;28;20051;-84
2022/12/18 07:33:59;;;;;;;5.22;3.20;;;;;;;-1.50;56.37;101461.09;5072100;28;20056;-84
2022/12/18 07:36:27;;;;;;;6.70;3.28;;;;;;;-1.38;55.56;101448.50;5066651;28;20048;-84
2022/12/18 07:38:58;;;;;;;6.10;3.58;;;;;;;-1.29;55.32;101447.22;5056570;28;20524;-84
2022/12/18 07:41:26;;;;;;;6.63;3.30;;;;;;;-1.16;55.34;101435.41;5056723;28;20053;-85
2022/12/18 07:43:54;;;;;;;6.18;3.45;;;;;;;-1.11;54.88;101441.09;5070093;28;20048;-85
2022/12/18 07:46:21;;;;;;;7.22;4.05;;;;;;;-1.03;55.50;101434.56;5072684;28;20516;-84
2022/12/18 07:48:48;;;;;;;5.30;3.25;;;;;;;-1.02;55.20;101436.25;5071049;28;20060;-85
2022/12/18 07:51:22;;;;;;;5.47;3.47;;;;;;;-0.85;54.61;101440.19;5073119;28;20480;-85
2022/12/18 07:53:49;;;;;;;5.90;3.13;;;;;;;-0.76;54.00;101440.78;5061542;28;20413;-84
2022/12/18 07:56:16;;;;;;;5.20;3.30;;;;;;;-0.58;52.97;101439.28;5071030;28;20045;-84
2022/12/18 07:58:45;;;;;;;5.82;3.03;;;;;;;-0.55;53.36;101436.94;5069809;28;20055;-85
2022/12/18 08:01:13;;;;;;;7.35;4.70;;;;;;;-0.40;53.12;101436.66;5072834;28;20059;-84
2022/12/18 08:03:42;;;;;;;6.45;3.72;;;;;;;-0.28;53.15;101442.28;5062975;28;20103;-84
2022/12/18 08:06:10;;;;;;;6.30;4.38;;;;;;;-0.21;52.92;101435.72;5065132;28;20051;-84
2022/12/18 08:08:38;;;;;;;6.50;4.03;;;;;;;-0.12;52.28;101446.44;5068863;28;20328;-85
2022/12/18 08:11:05;;;;;;;7.03;4.60;;;;;;;0.10;52.06;101433.22;5072478;28;20392;-85
2022/12/18 08:13:34;;;;;;;8.27;5.25;;;;;;;0.27;51.29;101428.03;5070985;28;20519;-84
2022/12/18 08:16:08;;;;;;;8.98;5.35;;;;;;;0.44;50.59;101436.53;5057793;28;20055;-84
2022/12/18 08:18:36;;;;;;;13.98;7.45;;;;;;;0.71;50.63;101428.94;5068809;28;20481;-85
2022/12/18 08:21:10;;;;;;;9.88;5.55;;;;;;;0.96;50.12;101415.19;5067322;28;20069;-85
2022/12/18 08:23:41;;;;;;;8.27;4.97;;;;;;;1.42;49.21;101414.63;5070693;28;20055;-83
2022/12/18 08:26:08;;;;;;;;;;;;;;;2.33;46.66;101408.28;5070853;28;20060;-81
2022/12/18 08:28:35;;;;;;;6.45;3.30;;;;;;;4.00;43.84;101395.66;5067445;28;19920;-81
2022/12/18 08:31:05;;;;;;;8.95;5.03;;;;;;;4.99;41.95;101379.59;5071774;28;20057;-81
2022/12/18 08:33:33;;;;;;;7.95;5.65;;;;;;;5.99;39.83;101376.69;5071024;28;20492;-82
2022/12/18 08:36:01;;;;;;;8.65;5.88;;;;;;;6.87;38.08;101379.88;5070907;28;20044;-84
2022/12/18 08:38:28;;;;;;;5.30;3.65;;;;;;;7.12;36.93;101372.81;5072785;28;20514;-86
2022/12/18 08:41:00;;;;;;;6.07;3.70;;;;;;;6.25;37.80;101367.50;5067333;28;20056;-86
2022/12/18 08:46:20;;;;;;;4.82;3.45;;;;;;;6.13;38.56;101353.00;5061629;28;20051;-85
2022/12/18 08:48:47;;;;;;;6.43;3.97;;;;;;;6.48;38.15;101346.94;5072634;28;20433;-80
2022/12/18 08:51:17;;;;;;;5.90;3.88;;;;;;;7.93;35.06;101344.50;5060548;28;20056;-80
2022/12/18 08:53:45;;;;;;;4.20;3.00;;;;;;;9.97;30.75;101330.34;5055022;28;20064;-80
2022/12/18 08:56:13;;;;;;;4.93;3.30;;;;;;;11.11;28.46;101336.56;5062660;28;20075;-85
2022/12/18 08:58:41;;;;;;;4.93;3.20;;;;;;;11.91;27.25;101332.19;5071961;28;20048;-84
2022/12/18 09:01:10;;;;;;;4.25;2.83;;;;;;;11.87;27.99;101322.72;5073026;28;20078;-87
2022/12/18 09:03:39;;;;;;;4.13;2.72;;;;;;;12.22;27.50;101310.19;5065416;28;20051;-87
2022/12/18 09:06:08;;;;;;;3.90;2.60;;;;;;;13.61;25.17;101336.34;5052994;28;20067;-88
2022/12/18 09:08:36;;;;;;;3.67;2.70;;;;;;;14.36;25.14;101332.03;5060967;28;20044;-87
2022/12/18 09:11:03;;;;;;;4.88;2.88;;;;;;;15.70;22.80;101340.38;5069539;28;20041;-87
2022/12/18 09:13:31;;;;;;;4.90;3.30;;;;;;;16.14;22.91;101344.06;5070780;28;20045;-84
2022/12/18 09:15:58;;;;;;;5.82;4.38;;;;;;;16.16;23.05;101340.94;5069892;28;20049;-86
2022/12/18 09:18:25;;;;;;;5.10;3.33;;;;;;;16.43;21.78;101323.69;5069126;28;20053;-85
2022/12/18 09:20:55;;;;;;;4.10;2.67;;;;;;;16.62;21.32;101309.25;5069844;28;20041;-85
2022/12/18 09:23:22;;;;;;;;;;;;;;;16.19;21.60;101324.25;5056476;28;20052;-87
2022/12/18 09:25:50;;;;;;;3.97;2.53;;;;;;;15.32;22.34;101329.72;5063032;28;19920;-85
2022/12/18 09:28:19;;;;;;;3.83;2.50;;;;;;;14.77;21.86;101319.75;5065116;28;20424;-85
2022/12/18 09:30:48;;;;;;;4.63;2.70;;;;;;;13.94;22.20;101305.31;5068799;28;20052;-85
2022/12/18 09:33:16;;;;;;;;;;;;;;;13.31;23.22;101305.06;5069824;28;20049;-85
2022/12/18 09:35:45;;;;;;;3.58;2.63;;;;;;;12.77;24.59;101309.50;5052425;28;19921;-86
2022/12/18 09:38:16;;;;;;;6.45;3.25;;;;;;;12.11;24.66;101314.25;5067553;28;20041;-85
2022/12/18 09:40:47;;;;;;;4.25;3.08;;;;;;;11.73;25.24;101326.25;5066379;28;20052;-85
2022/12/18 09:43:20;;;;;;;3.70;2.75;;;;;;;12.35;25.03;101312.19;5052240;28;20053;-85
2022/12/18 09:45:54;;;;;;;4.50;3.10;;;;;;;12.37;24.12;101311.88;5060854;28;20386;-85
2022/12/18 09:48:28;;;;;;;4.05;2.72;;;;;;;13.40;23.20;101303.19;5074933;28;20049;-85
2022/12/18 09:51:00;;;;;;;3.10;2.70;;;;;;;13.70;23.93;101311.22;5072772;28;20053;-84
2022/12/18 09:53:34;;;;;;;4.20;2.95;;;;;;;12.35;25.42;101292.63;5060445;28;20482;-88
2022/12/18 09:56:03;;;;;;;3.47;2.60;;;;;;;12.03;24.50;101301.00;5070127;28;20056;-84
2022/12/18 09:58:35;;;;;;;4.03;2.63;;;;;;;11.47;25.37;101300.69;5074532;28;20063;-84
2022/12/18 10:01:03;;;;;;;3.75;2.47;;;;;;;10.37;27.17;101300.53;5075453;28;20059;-84
2022/12/18 10:03:30;;;;;;;3.67;2.60;;;;;;;10.72;26.26;101309.69;5074596;28;20067;-84
2022/12/18 10:06:05;;;;;;;4.07;2.58;;;;;;;10.57;27.41;101305.91;5075633;28;20147;-85
2022/12/18 10:08:45;;;;;;;4.25;2.70;;;;;;;10.31;26.21;101315.63;5073985;28;20041;-85
2022/12/18 10:11:31;;;;;;;3.75;2.85;;;;;;;10.24;26.86;101318.72;5075624;28;20063;-84
2022/12/18 10:14:08;;;;;;;4.78;2.85;;;;;;;9.61;27.49;101321.41;5075201;28;20512;-84
2022/12/18 10:16:42;;;;;;;3.65;2.70;;;;;;;8.22;28.10;101312.63;5075071;28;20053;-84
2022/12/18 10:19:21;;;;;;;5.93;2.50;;;;;;;8.34;30.00;101313.19;5074791;28;20520;-84
2022/12/18 10:21:57;;;;;;;4.82;3.15;;;;;;;8.75;28.63;101299.25;5060115;28;20044;-84
2022/12/18 10:24:31;;;;;;;4.78;3.08;;;;;;;9.47;28.22;101290.59;5072331;28;20509;-85
2022/12/18 10:27:09;;;;;;;5.30;3.28;;;;;;;9.80;28.06;101288.19;5066726;28;20056;-85
2022/12/18 10:29:42;;;;;;;3.35;2.20;;;;;;;10.28;26.06;101274.44;5074016;28;20053;-84
2022/12/18 10:32:16;;;;;;;3.35;2.53;;;;;;;9.97;26.68;101269.13;5072668;28;20063;-84
2022/12/18 10:34:47;;;;;;;4.75;2.70;;;;;;;10.32;25.99;101264.41;5066149;28;20496;-84
2022/12/18 10:37:18;;;;;;;2.78;2.20;;;;;;;10.35;26.29;101270.22;5059636;28;20060;-84
2022/12/18 10:40:05;;;;;;;4.20;2.95;;;;;;;10.43;27.98;101270.69;5068718;28;20431;-82
2022/12/18 10:42:33;;;;;;;4.57;2.33;;;;;;;9.93;26.81;101257.75;5055261;28;20053;-83
2022/12/18 10:45:06;;;;;;;3.28;2.10;;;;;;;10.28;26.69;101244.63;5055309;28;20064;-83
2022/12/18 10:47:35;;;;;;;3.92;2.50;;;;;;;10.14;27.32;101246.44;5071144;28;20049;-83
2022/12/18 10:50:02;;;;;;;3.00;2.30;;;;;;;9.62;27.10;101228.53;5075309;28;20048;-86
2022/12/18 10:52:30;;;;;;;4.63;2.88;;;;;;;10.10;26.67;101240.63;5072217;28;20052;-83
2022/12/18 10:55:03;;;;;;;4.05;3.10;;;;;;;10.55;26.77;101230.16;5072756;28;20060;-83
2022/12/18 10:57:36;;;;;;;4.93;3.33;;;;;;;10.61;25.51;101224.56;5074451;28;20056;-83
2022/12/18 11:00:23;;;;;;;3.45;2.55;;;;;;;10.97;24.73;101222.16;5073546;28;20412;-84
2022/12/18 11:02:51;;;;;;;3.83;2.83;;;;;;;11.10;25.49;101228.94;5074410;28;20080;-83
2022/12/18 11:05:28;;;;;;;4.13;2.65;;;;;;;10.79;24.98;101218.19;5070308;28;20489;-82
2022/12/18 11:07:56;;;;;;;4.30;3.13;;;;;;;11.42;25.05;101208.69;5067092;28;20052;-82
2022/12/18 11:10:30;;;;;;;3.33;2.47;;;;;;;11.21;24.78;101205.38;5072787;28;20048;-81
2022/12/18 11:13:13;;;;;;;5.50;2.60;;;;;;;11.70;23.99;101214.41;5061469;28;20044;-80
2022/12/18 11:15:42;;;;;;;5.63;4.45;;;;;;;11.53;24.54;101209.38;5077131;28;20052;-82
2022/12/18 11:18:19;;;;;;;3.25;2.25;;;;;;;10.50;25.54;101199.59;5062819;28;20480;-84
2022/12/18 11:20:52;;;;;;;4.38;3.10;;;;;;;10.41;26.13;101198.56;5054310;28;20523;-84
2022/12/18 11:23:23;;;;;;;3.90;2.47;;;;;;;9.85;25.83;101204.66;5068887;28;20481;-85
2022/12/18 11:26:01;;;;;;;3.30;2.30;;;;;;;9.54;25.54;101204.94;5063983;28;20048;-85
2022/12/18 11:28:36;;;;;;;5.68;2.13;;;;;;;9.35;26.58;101194.47;5073408;28;20049;-85
2022/12/18 11:31:18;;;;;;;2.47;2.00;;;;;;;9.19;26.56;101192.91;5073947;28;20495;-85
2022/12/18 11:33:49;;;;;;;2.83;2.13;;;;;;;8.83;26.67;101190.34;5073339;28;20049;-84
2022/12/18 11:36:18;;;;;;;2.78;1.70;;;;;;;8.77;26.54;101183.13;5073717;28;20647;-85
2022/12/18 11:38:48;;;;;;;4.97;2.22;;;;;;;8.64;28.77;101180.97;5072360;28;20512;-84